Cadal — CFC2057 — position and weather

sailwx.info

Track history (hours):
 
Tides and Currents Weather Stations Pressure Air Temp Water Temp Dewpoint Dewpoint Depression Visibility Wind Speed Wind Dir Waves Ship Positions

Cadal

Last reported at 2018-Jun-20 07:40 UTC. Time now 2018-Jun-20 14:49 UTC.
Position N 54°08' W 132°10'.

Length 13 m; draft 2 m.

Type: Tug. MMSI: 316003137.

Date/timePositionNaut miles runAvg speedWind from/ knotsBaromVisibWave heightAir tempDewpointWater temp
2018-Jun-20 07:40N 54°08' W 132°10'1 6.5
2018-Jun-20 07:30N 54°08' W 132°09'3 6.3
2018-Jun-20 07:00N 54°10' W 132°04'3 6.3
2018-Jun-20 06:30N 54°11' W 131°59'3 6.0
2018-Jun-20 06:00N 54°12' W 131°54'3 5.9
2018-Jun-20 05:30N 54°13' W 131°50'9 5.0
2018-Jun-20 03:45N 54°18' W 131°36'1 4.8
2018-Jun-20 03:30N 54°18' W 131°34'3 4.9
2018-Jun-20 02:56N 54°19' W 131°30'2 5.0
2018-Jun-20 02:27N 54°19' W 131°26'2 4.9
2018-Jun-20 02:00N 54°20' W 131°22'3 5.1
2018-Jun-20 01:30N 54°20' W 131°18'2 4.9
2018-Jun-20 01:00N 54°20' W 131°14'2 4.5
2018-Jun-20 00:30N 54°19' W 131°10'2 4.8
2018-Jun-20 00:00N 54°19' W 131°06'2 4.9
2018-Jun-19 23:30N 54°19' W 131°02'3 6.3
2018-Jun-19 23:00N 54°19' W 130°56'3 6.8
2018-Jun-19 22:30N 54°18' W 130°51'4 7.2
2018-Jun-19 22:00N 54°16' W 130°45'3 6.8
2018-Jun-19 21:30N 54°15' W 130°40'3 6.6
2018-Jun-19 21:00N 54°14' W 130°34'3 6.5
2018-Jun-19 20:30N 54°14' W 130°29'3 6.3
2018-Jun-19 20:00N 54°14' W 130°24'3 5.4
2018-Jun-19 19:30N 54°16' W 130°22'3 5.8
2018-Jun-19 19:00N 54°19' W 130°21'3 5.4
2018-Jun-19 18:30N 54°20' W 130°16'1 1.7
2018-Jun-19 18:00N 54°19' W 130°16'0 0.0
2018-Jun-19 17:30N 54°19' W 130°16'0 0.0
2018-Jun-19 17:00N 54°19' W 130°16'0 0.0
2018-Jun-19 16:30N 54°19' W 130°16'0 0.0
2018-Jun-19 16:00N 54°19' W 130°16'0 0.0
2018-Jun-19 15:30N 54°19' W 130°16'0 0.0
2018-Jun-19 15:01N 54°19' W 130°16'0 0.1
2018-Jun-19 14:30N 54°19' W 130°16'0 0.3
2018-Jun-19 14:00N 54°19' W 130°16'0 0.0
2018-Jun-18 17:40N 54°19' W 130°16'0 2.2
2018-Jun-18 17:30N 54°19' W 130°15'1 1.1
2018-Jun-18 17:00N 54°19' W 130°16'0 0.1
2018-Jun-18 16:30N 54°19' W 130°16'0 0.1
2018-Jun-18 16:00N 54°19' W 130°16'1 2.9
2018-Jun-18 15:30N 54°20' W 130°18'2 3.1
2018-Jun-18 15:00N 54°19' W 130°20'3 6.1
2018-Jun-18 14:30N 54°16' W 130°22'3 6.7
2018-Jun-18 14:00N 54°13' W 130°21'3 6.8
2018-Jun-18 13:30N 54°10' W 130°20'3 6.7
2018-Jun-18 13:00N 54°06' W 130°18'4 7.4
2018-Jun-18 12:30N 54°03' W 130°15'4 7.3
2018-Jun-18 12:00N 53°60' W 130°13'4 7.1
2018-Jun-18 11:30N 53°56' W 130°13'3 6.6
2018-Jun-18 11:00N 53°53' W 130°17'3 6.3
2018-Jun-18 10:30N 53°51' W 130°19'3 6.5
2018-Jun-18 10:00N 53°47' W 130°20'32 1.4
2018-Jun-17 11:46N 53°47' W 131°14'3 6.4
2018-Jun-17 11:21N 53°49' W 131°11'2 6.3
2018-Jun-17 11:00N 53°50' W 131°08'3 6.7
2018-Jun-17 10:30N 53°53' W 131°04'3 6.7
2018-Jun-17 10:00N 53°55' W 131°00'3 6.5
2018-Jun-17 09:30N 53°57' W 130°56'3 6.4
2018-Jun-17 09:00N 53°60' W 130°52'3 6.5
2018-Jun-17 08:30N 54°02' W 130°48'3 6.3
2018-Jun-17 08:00N 54°04' W 130°44'3 6.0
2018-Jun-17 07:30N 54°03' W 130°39'3 6.3
2018-Jun-17 07:00N 54°04' W 130°34'4 7.3
2018-Jun-17 06:30N 54°07' W 130°31'4 7.2
2018-Jun-17 06:00N 54°10' W 130°27'4 7.6
2018-Jun-17 05:30N 54°12' W 130°22'4 7.8
2018-Jun-17 05:00N 54°16' W 130°22'3 6.7
2018-Jun-17 04:30N 54°19' W 130°20'3 5.2
2018-Jun-17 04:00N 54°19' W 130°15'0 0.9
2018-Jun-17 03:30N 54°19' W 130°16'0 0.0
2018-Jun-16 18:40N 54°19' W 130°16'1 5.7
2018-Jun-16 18:30N 54°20' W 130°16'1 1.8
2018-Jun-16 18:00N 54°19' W 130°16'0 0.0
2018-Jun-16 17:30N 54°19' W 130°16'0 0.0
2018-Jun-16 17:00N 54°19' W 130°16'0 0.0
2018-Jun-16 16:30N 54°19' W 130°16'0 0.0
2018-Jun-16 16:00N 54°19' W 130°16'0 0.0
2018-Jun-16 15:30N 54°19' W 130°16'1 2.7
2018-Jun-16 15:00N 54°20' W 130°17'1 2.1
2018-Jun-16 14:30N 54°19' W 130°16'0 0.5
2018-Jun-16 14:00N 54°19' W 130°16'0 0.0
2018-Jun-16 13:30N 54°19' W 130°16'0 0.0
2018-Jun-16 13:00N 54°19' W 130°16'0 0.0
2018-Jun-15 17:24N 54°19' W 130°16'2 4.1
2018-Jun-15 17:00N 54°20' W 130°19'0 0.9
2018-Jun-15 16:30N 54°19' W 130°19'0 0.0
2018-Jun-15 16:00N 54°19' W 130°19'2 3.5
2018-Jun-15 15:30N 54°18' W 130°21'3 7.1
2018-Jun-15 15:00N 54°15' W 130°21'4 8.5
2018-Jun-15 14:30N 54°10' W 130°20'5 9.8
2018-Jun-15 14:01N 54°06' W 130°18'5 9.5
2018-Jun-15 13:30N 54°02' W 130°14'5 9.3
2018-Jun-15 13:00N 53°57' W 130°12'4 8.8
2018-Jun-15 12:30N 53°54' W 130°07'6 9.0
2018-Jun-15 11:54N 53°50' W 130°01'6 0.2
2018-Jun-14 04:38N 53°45' W 129°54'2 6.4
2018-Jun-14 04:23N 53°46' W 129°55'2 6.0
2018-Jun-14 03:59N 53°48' W 129°58'3 6.2
2018-Jun-14 03:30N 53°50' W 130°02'3 6.3
2018-Jun-14 03:00N 53°53' W 130°05'3 6.2
2018-Jun-14 02:30N 53°54' W 130°09'3 6.5
2018-Jun-14 02:00N 53°57' W 130°12'3 5.6
2018-Jun-14 01:30N 54°00' W 130°13'3 5.6
2018-Jun-14 01:00N 54°03' W 130°15'3 6.1
2018-Jun-14 00:30N 54°05' W 130°18'3 5.7
2018-Jun-14 00:00N 54°08' W 130°19'3 5.7
2018-Jun-13 23:30N 54°11' W 130°21'3 6.0
2018-Jun-13 23:00N 54°14' W 130°21'3 6.9
2018-Jun-13 22:31N 54°17' W 130°22'3 6.3
2018-Jun-13 22:00N 54°20' W 130°19'2 3.9
2018-Jun-13 21:30N 54°19' W 130°16'0 0.6
2018-Jun-13 21:00N 54°19' W 130°16'0 1.0
2018-Jun-13 20:30N 54°19' W 130°15'0 0.9
2018-Jun-13 20:00N 54°19' W 130°16'0 0.0
2018-Jun-13 19:30N 54°19' W 130°16'0 0.0
2018-Jun-13 19:00N 54°19' W 130°16'0 0.0
2018-Jun-13 18:30N 54°19' W 130°16'0 0.1
2018-Jun-13 18:00N 54°19' W 130°16'0 0.7
2018-Jun-13 17:30N 54°19' W 130°16'2 3.8
2018-Jun-13 17:00N 54°20' W 130°19'3 6.2
2018-Jun-13 16:30N 54°19' W 130°25'3 5.7
2018-Jun-13 16:00N 54°19' W 130°29'3 5.4
2018-Jun-13 15:30N 54°18' W 130°34'3 6.3
2018-Jun-13 15:00N 54°19' W 130°39'3 6.7
2018-Jun-13 14:30N 54°19' W 130°45'3 6.7
2018-Jun-13 14:00N 54°19' W 130°51'3 5.6
2018-Jun-13 13:30N 54°19' W 130°55'3 5.8
2018-Jun-13 13:00N 54°19' W 131°00'3 5.2
2018-Jun-13 12:30N 54°20' W 131°05'2 4.9
2018-Jun-13 12:00N 54°20' W 131°09'3 5.0
2018-Jun-13 11:29N 54°20' W 131°13'2 4.9
2018-Jun-13 11:00N 54°20' W 131°17'2 4.6
2018-Jun-13 10:30N 54°20' W 131°21'2 0.1
2018-Jun-12 01:26N 54°19' W 131°25'3 6.6
2018-Jun-12 01:00N 54°20' W 131°21'3 5.7
2018-Jun-12 00:30N 54°20' W 131°16'4 7.2
2018-Jun-12 00:00N 54°19' W 131°10'4 7.2
2018-Jun-11 23:30N 54°19' W 131°04'4 7.3
2018-Jun-11 23:00N 54°19' W 130°57'4 7.2
2018-Jun-11 22:30N 54°18' W 130°51'4 7.5
2018-Jun-11 22:00N 54°16' W 130°46'4 7.4
2018-Jun-11 21:30N 54°15' W 130°40'4 7.5
2018-Jun-11 21:00N 54°14' W 130°34'4 7.4
2018-Jun-11 20:30N 54°13' W 130°27'4 7.0
2018-Jun-11 20:00N 54°14' W 130°21'3 6.0
2018-Jun-11 19:30N 54°17' W 130°22'3 5.9
2018-Jun-11 19:00N 54°20' W 130°19'2 3.4
2018-Jun-11 18:30N 54°19' W 130°16'0 0.5
2018-Jun-11 18:00N 54°19' W 130°16'0 0.0
2018-Jun-11 17:30N 54°19' W 130°16'0 0.0
2018-Jun-11 17:00N 54°19' W 130°16'0 0.0
2018-Jun-11 16:31N 54°19' W 130°16'0 0.0
2018-Jun-11 16:00N 54°19' W 130°16'0 0.0
2018-Jun-11 15:30N 54°19' W 130°16'1 1.2
2018-Jun-11 15:01N 54°19' W 130°15'1 1.4
2018-Jun-11 14:30N 54°19' W 130°16'0 0.0
2018-Jun-10 23:06N 54°19' W 130°16'0 4.9
2018-Jun-10 23:00N 54°20' W 130°16'2 4.0
2018-Jun-10 22:30N 54°19' W 130°20'2 3.1
2018-Jun-10 22:00N 54°20' W 130°18'1 2.6
2018-Jun-10 21:30N 54°19' W 130°16'  
Track history (hours):
 
Tides and Currents Weather Stations Pressure Air Temp Water Temp Dewpoint Dewpoint Depression Visibility Wind Speed Wind Dir Waves Ship Positions

Cadal

Last reported at 2018-Jun-20 07:40 UTC. Time now 2018-Jun-20 14:49 UTC.
Position N 54°08' W 132°10'.

Length 13 m; draft 2 m.

Type: Tug. MMSI: 316003137.

Date/timePositionNaut miles runAvg speedWind from/ knotsBaromVisibWave heightAir tempDewpointWater temp
2018-Jun-20 07:40N 54°08' W 132°10'1 6.5
2018-Jun-20 07:30N 54°08' W 132°09'3 6.3
2018-Jun-20 07:00N 54°10' W 132°04'3 6.3
2018-Jun-20 06:30N 54°11' W 131°59'3 6.0
2018-Jun-20 06:00N 54°12' W 131°54'3 5.9
2018-Jun-20 05:30N 54°13' W 131°50'9 5.0
2018-Jun-20 03:45N 54°18' W 131°36'1 4.8
2018-Jun-20 03:30N 54°18' W 131°34'3 4.9
2018-Jun-20 02:56N 54°19' W 131°30'2 5.0
2018-Jun-20 02:27N 54°19' W 131°26'2 4.9
2018-Jun-20 02:00N 54°20' W 131°22'3 5.1
2018-Jun-20 01:30N 54°20' W 131°18'2 4.9
2018-Jun-20 01:00N 54°20' W 131°14'2 4.5
2018-Jun-20 00:30N 54°19' W 131°10'2 4.8
2018-Jun-20 00:00N 54°19' W 131°06'2 4.9
2018-Jun-19 23:30N 54°19' W 131°02'3 6.3
2018-Jun-19 23:00N 54°19' W 130°56'3 6.8
2018-Jun-19 22:30N 54°18' W 130°51'4 7.2
2018-Jun-19 22:00N 54°16' W 130°45'3 6.8
2018-Jun-19 21:30N 54°15' W 130°40'3 6.6
2018-Jun-19 21:00N 54°14' W 130°34'3 6.5
2018-Jun-19 20:30N 54°14' W 130°29'3 6.3
2018-Jun-19 20:00N 54°14' W 130°24'3 5.4
2018-Jun-19 19:30N 54°16' W 130°22'3 5.8
2018-Jun-19 19:00N 54°19' W 130°21'3 5.4
2018-Jun-19 18:30N 54°20' W 130°16'1 1.7
2018-Jun-19 18:00N 54°19' W 130°16'0 0.0
2018-Jun-19 17:30N 54°19' W 130°16'0 0.0
2018-Jun-19 17:00N 54°19' W 130°16'0 0.0
2018-Jun-19 16:30N 54°19' W 130°16'0 0.0
2018-Jun-19 16:00N 54°19' W 130°16'0 0.0
2018-Jun-19 15:30N 54°19' W 130°16'0 0.0
2018-Jun-19 15:01N 54°19' W 130°16'0 0.1
2018-Jun-19 14:30N 54°19' W 130°16'0 0.3
2018-Jun-19 14:00N 54°19' W 130°16'0 0.0
2018-Jun-18 17:40N 54°19' W 130°16'0 2.2
2018-Jun-18 17:30N 54°19' W 130°15'1 1.1
2018-Jun-18 17:00N 54°19' W 130°16'0 0.1
2018-Jun-18 16:30N 54°19' W 130°16'0 0.1
2018-Jun-18 16:00N 54°19' W 130°16'1 2.9
2018-Jun-18 15:30N 54°20' W 130°18'2 3.1
2018-Jun-18 15:00N 54°19' W 130°20'3 6.1
2018-Jun-18 14:30N 54°16' W 130°22'3 6.7
2018-Jun-18 14:00N 54°13' W 130°21'3 6.8
2018-Jun-18 13:30N 54°10' W 130°20'3 6.7
2018-Jun-18 13:00N 54°06' W 130°18'4 7.4
2018-Jun-18 12:30N 54°03' W 130°15'4 7.3
2018-Jun-18 12:00N 53°60' W 130°13'4 7.1
2018-Jun-18 11:30N 53°56' W 130°13'3 6.6
2018-Jun-18 11:00N 53°53' W 130°17'3 6.3
2018-Jun-18 10:30N 53°51' W 130°19'3 6.5
2018-Jun-18 10:00N 53°47' W 130°20'32 1.4
2018-Jun-17 11:46N 53°47' W 131°14'3 6.4
2018-Jun-17 11:21N 53°49' W 131°11'2 6.3
2018-Jun-17 11:00N 53°50' W 131°08'3 6.7
2018-Jun-17 10:30N 53°53' W 131°04'3 6.7
2018-Jun-17 10:00N 53°55' W 131°00'3 6.5
2018-Jun-17 09:30N 53°57' W 130°56'3 6.4
2018-Jun-17 09:00N 53°60' W 130°52'3 6.5
2018-Jun-17 08:30N 54°02' W 130°48'3 6.3
2018-Jun-17 08:00N 54°04' W 130°44'3 6.0
2018-Jun-17 07:30N 54°03' W 130°39'3 6.3
2018-Jun-17 07:00N 54°04' W 130°34'4 7.3
2018-Jun-17 06:30N 54°07' W 130°31'4 7.2
2018-Jun-17 06:00N 54°10' W 130°27'4 7.6
2018-Jun-17 05:30N 54°12' W 130°22'4 7.8
2018-Jun-17 05:00N 54°16' W 130°22'3 6.7
2018-Jun-17 04:30N 54°19' W 130°20'3 5.2
2018-Jun-17 04:00N 54°19' W 130°15'0 0.9
2018-Jun-17 03:30N 54°19' W 130°16'0 0.0
2018-Jun-16 18:40N 54°19' W 130°16'1 5.7
2018-Jun-16 18:30N 54°20' W 130°16'1 1.8
2018-Jun-16 18:00N 54°19' W 130°16'0 0.0
2018-Jun-16 17:30N 54°19' W 130°16'0 0.0
2018-Jun-16 17:00N 54°19' W 130°16'0 0.0
2018-Jun-16 16:30N 54°19' W 130°16'0 0.0
2018-Jun-16 16:00N 54°19' W 130°16'0 0.0
2018-Jun-16 15:30N 54°19' W 130°16'1 2.7
2018-Jun-16 15:00N 54°20' W 130°17'1 2.1
2018-Jun-16 14:30N 54°19' W 130°16'0 0.5
2018-Jun-16 14:00N 54°19' W 130°16'0 0.0
2018-Jun-16 13:30N 54°19' W 130°16'0 0.0
2018-Jun-16 13:00N 54°19' W 130°16'0 0.0
2018-Jun-15 17:24N 54°19' W 130°16'2 4.1
2018-Jun-15 17:00N 54°20' W 130°19'0 0.9
2018-Jun-15 16:30N 54°19' W 130°19'0 0.0
2018-Jun-15 16:00N 54°19' W 130°19'2 3.5
2018-Jun-15 15:30N 54°18' W 130°21'3 7.1
2018-Jun-15 15:00N 54°15' W 130°21'4 8.5
2018-Jun-15 14:30N 54°10' W 130°20'5 9.8
2018-Jun-15 14:01N 54°06' W 130°18'5 9.5
2018-Jun-15 13:30N 54°02' W 130°14'5 9.3
2018-Jun-15 13:00N 53°57' W 130°12'4 8.8
2018-Jun-15 12:30N 53°54' W 130°07'6 9.0
2018-Jun-15 11:54N 53°50' W 130°01'6 0.2
2018-Jun-14 04:38N 53°45' W 129°54'2 6.4
2018-Jun-14 04:23N 53°46' W 129°55'2 6.0
2018-Jun-14 03:59N 53°48' W 129°58'3 6.2
2018-Jun-14 03:30N 53°50' W 130°02'3 6.3
2018-Jun-14 03:00N 53°53' W 130°05'3 6.2
2018-Jun-14 02:30N 53°54' W 130°09'3 6.5
2018-Jun-14 02:00N 53°57' W 130°12'3 5.6
2018-Jun-14 01:30N 54°00' W 130°13'3 5.6
2018-Jun-14 01:00N 54°03' W 130°15'3 6.1
2018-Jun-14 00:30N 54°05' W 130°18'3 5.7
2018-Jun-14 00:00N 54°08' W 130°19'3 5.7
2018-Jun-13 23:30N 54°11' W 130°21'3 6.0
2018-Jun-13 23:00N 54°14' W 130°21'3 6.9
2018-Jun-13 22:31N 54°17' W 130°22'3 6.3
2018-Jun-13 22:00N 54°20' W 130°19'2 3.9
2018-Jun-13 21:30N 54°19' W 130°16'0 0.6
2018-Jun-13 21:00N 54°19' W 130°16'0 1.0
2018-Jun-13 20:30N 54°19' W 130°15'0 0.9
2018-Jun-13 20:00N 54°19' W 130°16'0 0.0
2018-Jun-13 19:30N 54°19' W 130°16'0 0.0
2018-Jun-13 19:00N 54°19' W 130°16'0 0.0
2018-Jun-13 18:30N 54°19' W 130°16'0 0.1
2018-Jun-13 18:00N 54°19' W 130°16'0 0.7
2018-Jun-13 17:30N 54°19' W 130°16'2 3.8
2018-Jun-13 17:00N 54°20' W 130°19'3 6.2
2018-Jun-13 16:30N 54°19' W 130°25'3 5.7
2018-Jun-13 16:00N 54°19' W 130°29'3 5.4
2018-Jun-13 15:30N 54°18' W 130°34'3 6.3
2018-Jun-13 15:00N 54°19' W 130°39'3 6.7
2018-Jun-13 14:30N 54°19' W 130°45'3 6.7
2018-Jun-13 14:00N 54°19' W 130°51'3 5.6
2018-Jun-13 13:30N 54°19' W 130°55'3 5.8
2018-Jun-13 13:00N 54°19' W 131°00'3 5.2
2018-Jun-13 12:30N 54°20' W 131°05'2 4.9
2018-Jun-13 12:00N 54°20' W 131°09'3 5.0
2018-Jun-13 11:29N 54°20' W 131°13'2 4.9
2018-Jun-13 11:00N 54°20' W 131°17'2 4.6
2018-Jun-13 10:30N 54°20' W 131°21'2 0.1
2018-Jun-12 01:26N 54°19' W 131°25'3 6.6
2018-Jun-12 01:00N 54°20' W 131°21'3 5.7
2018-Jun-12 00:30N 54°20' W 131°16'4 7.2
2018-Jun-12 00:00N 54°19' W 131°10'4 7.2
2018-Jun-11 23:30N 54°19' W 131°04'4 7.3
2018-Jun-11 23:00N 54°19' W 130°57'4 7.2
2018-Jun-11 22:30N 54°18' W 130°51'4 7.5
2018-Jun-11 22:00N 54°16' W 130°46'4 7.4
2018-Jun-11 21:30N 54°15' W 130°40'4 7.5
2018-Jun-11 21:00N 54°14' W 130°34'4 7.4
2018-Jun-11 20:30N 54°13' W 130°27'4 7.0
2018-Jun-11 20:00N 54°14' W 130°21'3 6.0
2018-Jun-11 19:30N 54°17' W 130°22'3 5.9
2018-Jun-11 19:00N 54°20' W 130°19'2 3.4
2018-Jun-11 18:30N 54°19' W 130°16'0 0.5
2018-Jun-11 18:00N 54°19' W 130°16'0 0.0
2018-Jun-11 17:30N 54°19' W 130°16'0 0.0
2018-Jun-11 17:00N 54°19' W 130°16'0 0.0
2018-Jun-11 16:31N 54°19' W 130°16'0 0.0
2018-Jun-11 16:00N 54°19' W 130°16'0 0.0
2018-Jun-11 15:30N 54°19' W 130°16'1 1.2
2018-Jun-11 15:01N 54°19' W 130°15'1 1.4
2018-Jun-11 14:30N 54°19' W 130°16'0 0.0
2018-Jun-10 23:06N 54°19' W 130°16'0 4.9
2018-Jun-10 23:00N 54°20' W 130°16'2 4.0
2018-Jun-10 22:30N 54°19' W 130°20'2 3.1
2018-Jun-10 22:00N 54°20' W 130°18'1 2.6
2018-Jun-10 21:30N 54°19' W 130°16'  

Dump ship's entire track history